createdAt,value
2019-05-12T00:00:25.132Z,9.95
2019-05-12T00:01:25.122Z,9.98
2019-05-12T00:02:25.140Z,9.98
2019-05-12T00:03:27.535Z,9.97
2019-05-12T00:04:25.086Z,9.97
2019-05-12T00:05:25.076Z,10.01
2019-05-12T00:06:25.068Z,9.95
2019-05-12T00:07:25.056Z,9.92
2019-05-12T00:08:25.047Z,9.95
2019-05-12T00:09:25.062Z,9.94
2019-05-12T00:10:25.102Z,10.04
2019-05-12T00:11:25.024Z,10.09
2019-05-12T00:12:25.049Z,10.10
2019-05-12T00:13:25.086Z,10.01
2019-05-12T00:14:24.989Z,10.04
2019-05-12T00:15:24.967Z,10.05
2019-05-12T00:16:24.961Z,10.04
2019-05-12T00:17:24.989Z,10.07
2019-05-12T00:18:24.992Z,10.02
2019-05-12T00:19:25.008Z,10.01
2019-05-12T00:20:24.968Z,10.05
2019-05-12T00:21:24.907Z,10.10
2019-05-12T00:22:24.890Z,9.99
2019-05-12T00:23:27.993Z,9.98
2019-05-12T00:24:27.795Z,9.91
2019-05-12T00:25:24.855Z,9.97
2019-05-12T00:26:24.845Z,9.94
2019-05-12T00:27:24.837Z,9.98
2019-05-12T00:28:24.839Z,10.01
2019-05-12T00:29:24.852Z,9.99
2019-05-12T00:30:24.799Z,9.94
2019-05-12T00:31:24.790Z,9.91
2019-05-12T00:32:24.776Z,9.87
2019-05-12T00:33:24.784Z,9.84
2019-05-12T00:34:24.768Z,9.84
2019-05-12T00:35:24.746Z,9.79
2019-05-12T00:36:24.731Z,9.72
2019-05-12T00:37:24.739Z,9.77
2019-05-12T00:38:24.721Z,9.72
2019-05-12T00:39:24.710Z,9.76
2019-05-12T00:40:24.687Z,9.74
2019-05-12T00:41:24.675Z,9.73
2019-05-12T00:42:24.669Z,9.72
2019-05-12T00:43:24.658Z,9.73
2019-05-12T00:44:24.656Z,9.72
2019-05-12T00:45:24.631Z,9.69
2019-05-12T00:46:24.621Z,9.68
2019-05-12T00:47:24.616Z,9.56
2019-05-12T00:48:24.600Z,9.59
2019-05-12T00:49:24.601Z,9.55
2019-05-12T00:50:24.749Z,9.56
2019-05-12T00:51:24.578Z,9.61
2019-05-12T00:52:24.554Z,9.65
2019-05-12T00:53:36.203Z,9.61
2019-05-12T00:54:25.547Z,9.68
2019-05-12T00:55:24.523Z,9.61
2019-05-12T00:56:24.514Z,9.66
2019-05-12T00:57:24.502Z,9.65
2019-05-12T00:58:24.490Z,9.55
2019-05-12T00:59:24.488Z,9.62
2019-05-12T01:00:24.467Z,9.64
2019-05-12T01:01:24.463Z,9.62
2019-05-12T01:02:24.452Z,9.59
2019-05-12T01:03:24.436Z,9.56
2019-05-12T01:04:24.433Z,9.55
2019-05-12T01:05:24.449Z,9.48
2019-05-12T01:06:24.401Z,9.46
2019-05-12T01:07:24.418Z,9.46
2019-05-12T01:08:24.387Z,9.44
2019-05-12T01:09:24.369Z,9.40
2019-05-12T01:10:24.360Z,9.39
2019-05-12T01:11:24.347Z,9.37
2019-05-12T01:12:24.425Z,9.34
2019-05-12T01:13:24.323Z,9.29
2019-05-12T01:14:24.342Z,9.36
2019-05-12T01:15:24.303Z,9.29
2019-05-12T01:16:24.291Z,9.39
2019-05-12T01:17:24.280Z,9.31
2019-05-12T01:18:24.271Z,9.43
2019-05-12T01:19:24.259Z,9.31
2019-05-12T01:20:24.264Z,9.28
2019-05-12T01:21:24.237Z,9.25
2019-05-12T01:22:24.225Z,9.28
2019-05-12T01:23:24.220Z,9.26
2019-05-12T01:24:24.204Z,9.29
2019-05-12T01:25:24.206Z,9.29
2019-05-12T01:26:24.190Z,9.29
2019-05-12T01:27:24.193Z,9.34
2019-05-12T01:28:24.163Z,9.29
2019-05-12T01:29:24.158Z,9.31
2019-05-12T01:30:24.151Z,9.29
2019-05-12T01:31:24.130Z,9.22
2019-05-12T01:32:24.119Z,9.26
2019-05-12T01:33:24.142Z,9.29
2019-05-12T01:34:24.096Z,9.23
2019-05-12T01:35:24.097Z,9.23
2019-05-12T01:36:24.075Z,9.18
2019-05-12T01:37:24.070Z,9.22
2019-05-12T01:38:24.061Z,9.16
2019-05-12T01:39:24.042Z,9.19
2019-05-12T01:40:24.075Z,9.18
2019-05-12T01:41:24.020Z,9.13
2019-05-12T01:42:24.011Z,9.18
2019-05-12T01:43:23.999Z,9.14
2019-05-12T01:44:23.991Z,9.18
2019-05-12T01:45:23.984Z,9.19
2019-05-12T01:46:24.037Z,9.08
2019-05-12T01:47:23.954Z,9.18
2019-05-12T01:48:23.947Z,9.18
2019-05-12T01:49:23.938Z,9.21
2019-05-12T01:50:23.934Z,9.16
2019-05-12T01:51:23.914Z,9.21
2019-05-12T01:52:23.929Z,9.19
2019-05-12T01:53:23.889Z,9.14
2019-05-12T01:54:23.884Z,8.99
2019-05-12T01:55:23.901Z,9.00
2019-05-12T01:56:23.856Z,9.03
2019-05-12T01:57:23.845Z,9.00
2019-05-12T01:58:23.832Z,9.06
2019-05-12T01:59:23.820Z,9.10
2019-05-12T02:00:23.820Z,9.04
2019-05-12T02:01:23.802Z,9.08
2019-05-12T02:02:23.788Z,9.02
2019-05-12T02:03:23.775Z,9.04
2019-05-12T02:04:23.768Z,8.97
2019-05-12T02:05:23.767Z,8.82
2019-05-12T02:06:23.743Z,8.87
2019-05-12T02:07:23.730Z,8.85
2019-05-12T02:08:23.720Z,8.85
2019-05-12T02:09:23.736Z,8.88
2019-05-12T02:10:23.709Z,8.82
2019-05-12T02:11:23.689Z,8.95
2019-05-12T02:12:23.682Z,8.99
2019-05-12T02:13:23.668Z,8.85
2019-05-12T02:14:23.654Z,8.87
2019-05-12T02:15:23.642Z,8.88
2019-05-12T02:16:23.639Z,8.84
2019-05-12T02:17:23.626Z,8.84
2019-05-12T02:18:23.627Z,8.92
2019-05-12T02:19:23.602Z,8.87
2019-05-12T02:20:23.594Z,8.95
2019-05-12T02:21:23.585Z,8.85
2019-05-12T02:22:23.581Z,8.88
2019-05-12T02:23:23.558Z,8.85
2019-05-12T02:24:27.411Z,8.88
2019-05-12T02:25:24.546Z,8.87
2019-05-12T02:26:23.529Z,8.84
2019-05-12T02:27:23.517Z,8.79
2019-05-12T02:28:23.519Z,8.76
2019-05-12T02:29:23.493Z,8.78
2019-05-12T02:30:23.482Z,8.78
2019-05-12T02:31:23.605Z,8.79
2019-05-12T02:32:25.275Z,8.61
2019-05-12T02:33:24.599Z,8.64
2019-05-12T02:34:25.371Z,8.58
2019-05-12T02:35:24.744Z,8.66
2019-05-12T02:36:25.807Z,8.67
2019-05-12T02:37:26.128Z,8.67
2019-05-12T02:38:25.142Z,8.66
2019-05-12T02:39:24.843Z,8.67
2019-05-12T02:40:25.192Z,8.71
2019-05-12T02:41:25.962Z,8.70
2019-05-12T02:42:24.402Z,8.66
2019-05-12T02:43:24.382Z,8.69
2019-05-12T02:44:24.694Z,8.74
2019-05-12T02:45:25.314Z,8.71
2019-05-12T02:46:25.597Z,8.73
2019-05-12T02:47:24.148Z,8.61
2019-05-12T02:48:24.553Z,8.74
2019-05-12T02:49:24.426Z,8.66
2019-05-12T02:50:24.747Z,8.66
2019-05-12T02:51:24.862Z,8.64
2019-05-12T02:52:24.997Z,8.60
2019-05-12T02:53:24.828Z,8.67
2019-05-12T02:54:27.009Z,8.63
2019-05-12T02:55:25.663Z,8.66
2019-05-12T02:56:25.669Z,8.67
2019-05-12T02:57:25.487Z,8.64
2019-05-12T02:58:25.374Z,8.64
2019-05-12T02:59:25.291Z,8.60
2019-05-12T03:00:24.194Z,8.64
2019-05-12T03:01:24.504Z,8.61
2019-05-12T03:02:24.431Z,8.61
2019-05-12T03:03:25.154Z,8.67
2019-05-12T03:04:24.794Z,8.60
2019-05-12T03:05:24.869Z,8.61
2019-05-12T03:06:25.182Z,8.63
2019-05-12T03:07:25.494Z,8.61
2019-05-12T03:08:25.648Z,8.66
2019-05-12T03:09:24.397Z,8.60
2019-05-12T03:10:25.275Z,8.66
2019-05-12T03:11:24.769Z,8.64
2019-05-12T03:12:25.581Z,8.66
2019-05-12T03:13:25.304Z,8.60
2019-05-12T03:14:25.278Z,8.58
2019-05-12T03:15:25.047Z,8.61
2019-05-12T03:16:25.712Z,8.66
2019-05-12T03:17:25.167Z,8.60
2019-05-12T03:18:25.278Z,8.64
2019-05-12T03:19:25.266Z,8.53
2019-05-12T03:20:24.175Z,8.51
2019-05-12T03:21:24.546Z,8.61
2019-05-12T03:22:25.260Z,8.56
2019-05-12T03:23:24.824Z,8.46
2019-05-12T03:24:25.032Z,8.44
2019-05-12T03:25:29.010Z,8.46
2019-05-12T03:26:24.847Z,8.46
2019-05-12T03:27:25.532Z,8.44
2019-05-12T03:28:25.533Z,8.45
2019-05-12T03:29:25.130Z,8.48
2019-05-12T03:30:28.384Z,8.44
2019-05-12T03:31:30.590Z,8.48
2019-05-12T03:32:27.814Z,8.41
2019-05-12T03:33:33.284Z,8.49
2019-05-12T03:34:29.014Z,8.36
2019-05-12T03:35:32.375Z,8.38
2019-05-12T03:36:32.002Z,8.36
2019-05-12T03:37:30.726Z,8.31
2019-05-12T03:38:27.234Z,8.37
2019-05-12T03:39:25.078Z,8.33
2019-05-12T03:40:24.940Z,8.31
2019-05-12T03:41:25.039Z,8.41
2019-05-12T03:42:25.048Z,8.30
2019-05-12T03:43:24.365Z,8.42
2019-05-12T03:44:25.184Z,8.34
2019-05-12T03:45:25.128Z,8.41
2019-05-12T03:46:24.815Z,8.30
2019-05-12T03:47:25.148Z,8.42
2019-05-12T03:48:25.195Z,8.44
2019-05-12T03:49:24.424Z,8.38
2019-05-12T03:50:24.345Z,8.38
2019-05-12T03:51:25.105Z,8.33
2019-05-12T03:52:24.421Z,8.31
2019-05-12T03:53:24.701Z,8.31
2019-05-12T03:54:24.371Z,8.30
2019-05-12T03:55:34.395Z,8.38
2019-05-12T03:56:25.975Z,8.37
2019-05-12T03:57:25.230Z,8.30
2019-05-12T03:58:25.331Z,8.28
2019-05-12T03:59:25.365Z,8.33
2019-05-12T04:00:24.716Z,8.26
2019-05-12T04:01:25.029Z,8.30
2019-05-12T04:02:25.099Z,8.23
2019-05-12T04:03:24.743Z,8.28
2019-05-12T04:04:24.426Z,8.31
2019-05-12T04:05:24.383Z,8.28
2019-05-12T04:06:24.578Z,8.27
2019-05-12T04:07:24.358Z,8.28
2019-05-12T04:08:24.580Z,8.26
2019-05-12T04:09:24.589Z,8.30
2019-05-12T04:10:24.764Z,8.26
2019-05-12T04:11:24.973Z,8.24
2019-05-12T04:12:25.323Z,8.23
2019-05-12T04:13:22.385Z,8.24
2019-05-12T04:14:24.855Z,8.27
2019-05-12T04:15:25.367Z,8.28
2019-05-12T04:16:24.717Z,8.23
2019-05-12T04:17:24.390Z,8.15
2019-05-12T04:18:24.701Z,8.16
2019-05-12T04:19:24.942Z,8.13
2019-05-12T04:20:25.145Z,8.15
2019-05-12T04:21:24.378Z,8.15
2019-05-12T04:22:24.935Z,8.13
2019-05-12T04:23:24.776Z,8.13
2019-05-12T04:24:24.906Z,8.10
2019-05-12T04:25:25.052Z,8.16
2019-05-12T04:26:25.018Z,8.18
2019-05-12T04:27:24.993Z,8.12
2019-05-12T04:28:24.570Z,8.18
2019-05-12T04:29:24.997Z,8.18
2019-05-12T04:30:25.014Z,8.19
2019-05-12T04:31:24.899Z,8.23
2019-05-12T04:32:24.950Z,8.24
2019-05-12T04:33:25.425Z,8.19
2019-05-12T04:34:25.108Z,8.19
2019-05-12T04:35:24.902Z,8.16
2019-05-12T04:36:24.833Z,8.13
2019-05-12T04:37:24.850Z,8.20
2019-05-12T04:38:24.844Z,8.15
2019-05-12T04:39:25.073Z,8.12
2019-05-12T04:40:24.741Z,8.12
2019-05-12T04:41:25.642Z,8.18
2019-05-12T04:42:25.088Z,8.09
2019-05-12T04:43:25.237Z,8.08
2019-05-12T04:44:24.895Z,8.05
2019-05-12T04:45:25.233Z,8.08
2019-05-12T04:46:25.038Z,8.08
2019-05-12T04:47:25.070Z,8.09
2019-05-12T04:48:25.436Z,8.16
2019-05-12T04:49:25.056Z,8.08
2019-05-12T04:50:24.589Z,8.09
2019-05-12T04:51:24.952Z,8.10
2019-05-12T04:52:24.858Z,8.13
2019-05-12T04:53:24.946Z,8.08
2019-05-12T04:54:23.847Z,8.06
2019-05-12T04:55:25.322Z,8.05
2019-05-12T04:56:24.832Z,8.10
2019-05-12T04:57:25.206Z,8.10
2019-05-12T04:58:25.286Z,8.01
2019-05-12T04:59:21.887Z,8.12
2019-05-12T05:00:21.901Z,7.98
2019-05-12T05:01:25.026Z,8.05
2019-05-12T05:02:25.021Z,8.00
2019-05-12T05:03:24.565Z,7.97
2019-05-12T05:04:24.424Z,8.03
2019-05-12T05:05:24.642Z,8.05
2019-05-12T05:06:25.066Z,8.05
2019-05-12T05:07:24.405Z,7.97
2019-05-12T05:08:24.406Z,8.08
2019-05-12T05:09:24.393Z,8.00
2019-05-12T05:10:24.731Z,7.97
2019-05-12T05:11:24.718Z,7.97
2019-05-12T05:12:23.952Z,8.01
2019-05-12T05:13:24.289Z,8.08
2019-05-12T05:14:24.541Z,8.03
2019-05-12T05:15:24.726Z,7.98
2019-05-12T05:16:24.640Z,7.97
2019-05-12T05:17:24.209Z,7.98
2019-05-12T05:18:23.855Z,7.98
2019-05-12T05:19:21.689Z,8.00
2019-05-12T05:20:23.793Z,7.97
2019-05-12T05:21:23.850Z,8.06
2019-05-12T05:22:23.641Z,7.97
2019-05-12T05:23:21.630Z,7.91
2019-05-12T05:24:23.555Z,7.97
2019-05-12T05:25:23.688Z,7.94
2019-05-12T05:26:27.636Z,7.91
2019-05-12T05:27:24.559Z,7.95
2019-05-12T05:28:23.640Z,7.94
2019-05-12T05:29:23.879Z,7.93
2019-05-12T05:30:21.557Z,7.83
2019-05-12T05:31:21.559Z,7.88
2019-05-12T05:32:23.262Z,7.93
2019-05-12T05:33:23.618Z,7.94
2019-05-12T05:34:23.427Z,7.94
2019-05-12T05:35:23.716Z,7.90
2019-05-12T05:36:21.498Z,7.95
2019-05-12T05:37:23.786Z,7.93
2019-05-12T05:38:23.578Z,7.95
2019-05-12T05:39:24.139Z,7.91
2019-05-12T05:40:28.451Z,7.93
2019-05-12T05:41:24.041Z,7.87
2019-05-12T05:42:22.225Z,7.83
2019-05-12T05:43:24.182Z,7.80
2019-05-12T05:44:21.422Z,7.83
2019-05-12T05:45:24.132Z,7.88
2019-05-12T05:46:24.070Z,7.83
2019-05-12T05:47:27.112Z,7.85
2019-05-12T05:48:24.110Z,7.87
2019-05-12T05:49:23.701Z,7.79
2019-05-12T05:50:24.947Z,7.77
2019-05-12T05:51:23.817Z,7.82
2019-05-12T05:52:26.580Z,7.91
2019-05-12T05:53:24.298Z,7.79
2019-05-12T05:54:22.791Z,7.72
2019-05-12T05:55:23.358Z,7.76
2019-05-12T05:56:27.167Z,7.77
2019-05-12T05:57:25.771Z,7.75
2019-05-12T05:58:25.894Z,7.73
2019-05-12T05:59:30.970Z,7.77
2019-05-12T06:00:25.694Z,7.73
2019-05-12T06:01:21.223Z,7.76
2019-05-12T06:02:30.759Z,7.75
2019-05-12T06:03:24.572Z,7.87
2019-05-12T06:04:23.796Z,7.76
2019-05-12T06:05:26.253Z,7.75
2019-05-12T06:06:23.745Z,7.79
2019-05-12T06:07:25.506Z,7.82
2019-05-12T06:08:23.772Z,7.72
2019-05-12T06:09:23.460Z,7.83
2019-05-12T06:10:34.373Z,7.87
2019-05-12T06:11:28.217Z,7.85
2019-05-12T06:12:23.910Z,7.87
2019-05-12T06:13:26.315Z,7.83
2019-05-12T06:14:23.562Z,7.83
2019-05-12T06:15:23.428Z,7.79
2019-05-12T06:16:24.969Z,7.85
2019-05-12T06:17:21.068Z,7.87
2019-05-12T06:18:21.052Z,7.85
2019-05-12T06:19:25.982Z,7.87
2019-05-12T06:20:23.693Z,7.88
2019-05-12T06:21:21.009Z,7.87
2019-05-12T06:22:23.383Z,7.87
2019-05-12T06:23:21.009Z,7.90
2019-05-12T06:24:20.987Z,7.87
2019-05-12T06:25:21.019Z,7.97
2019-05-12T06:26:27.239Z,7.88
2019-05-12T06:27:24.139Z,7.93
2019-05-12T06:28:20.942Z,7.91
2019-05-12T06:29:21.990Z,7.93
2019-05-12T06:30:21.269Z,7.94
2019-05-12T06:31:25.098Z,7.97
2019-05-12T06:32:21.976Z,7.98
2019-05-12T06:33:28.387Z,7.98
2019-05-12T06:34:23.779Z,8.00
2019-05-12T06:35:20.870Z,7.94
2019-05-12T06:36:24.880Z,8.03
2019-05-12T06:37:23.640Z,8.08
2019-05-12T06:38:20.907Z,8.05
2019-05-12T06:39:20.950Z,7.94
2019-05-12T06:40:20.815Z,7.94
2019-05-12T06:41:23.634Z,8.01
2019-05-12T06:42:20.784Z,7.98
2019-05-12T06:43:20.779Z,8.05
2019-05-12T06:44:20.766Z,7.97
2019-05-12T06:45:23.369Z,8.05
2019-05-12T06:46:23.088Z,8.09
2019-05-12T06:47:20.731Z,7.97
2019-05-12T06:48:25.714Z,8.15
2019-05-12T06:49:21.720Z,8.16
2019-05-12T06:50:20.725Z,8.16
2019-05-12T06:51:23.783Z,8.09
2019-05-12T06:52:23.672Z,8.05
2019-05-12T06:53:28.987Z,8.10
2019-05-12T06:54:21.674Z,8.15
2019-05-12T06:55:20.657Z,8.09
2019-05-12T06:56:20.637Z,8.12
2019-05-12T06:57:25.410Z,8.10
2019-05-12T06:58:27.572Z,8.15
2019-05-12T06:59:23.702Z,8.15
2019-05-12T07:00:22.312Z,8.19
2019-05-12T07:01:24.012Z,8.15
2019-05-12T07:02:20.577Z,8.18
2019-05-12T07:03:28.404Z,8.16
2019-05-12T07:04:23.940Z,8.16
2019-05-12T07:05:20.619Z,8.13
2019-05-12T07:06:20.536Z,8.20
2019-05-12T07:07:20.549Z,8.16
2019-05-12T07:08:27.520Z,8.12
2019-05-12T07:09:25.070Z,8.26
2019-05-12T07:10:38.447Z,8.27
2019-05-12T07:11:24.004Z,8.28
2019-05-12T07:12:26.851Z,8.24
2019-05-12T07:13:24.875Z,8.26
2019-05-12T07:14:22.873Z,8.28
2019-05-12T07:15:20.526Z,8.27
2019-05-12T07:16:26.697Z,8.34
2019-05-12T07:17:23.796Z,8.27
2019-05-12T07:18:24.440Z,8.36
2019-05-12T07:19:23.389Z,8.30
2019-05-12T07:20:20.427Z,8.27
2019-05-12T07:21:23.705Z,8.28
2019-05-12T07:22:23.368Z,8.37
2019-05-12T07:23:25.796Z,8.30
2019-05-12T07:24:23.388Z,8.28
2019-05-12T07:25:24.591Z,8.37
2019-05-12T07:26:23.484Z,8.28
2019-05-12T07:27:33.786Z,8.37
2019-05-12T07:28:23.554Z,8.34
2019-05-12T07:29:20.280Z,8.36
2019-05-12T07:30:20.272Z,8.28
2019-05-12T07:31:20.275Z,8.41
2019-05-12T07:32:21.800Z,8.42
2019-05-12T07:33:20.259Z,8.42
2019-05-12T07:34:20.237Z,8.38
2019-05-12T07:35:20.216Z,8.37
2019-05-12T07:36:20.217Z,8.42
2019-05-12T07:37:20.195Z,8.44
2019-05-12T07:38:21.664Z,8.44
2019-05-12T07:39:21.178Z,8.33
2019-05-12T07:40:25.771Z,8.37
2019-05-12T07:41:23.573Z,8.37
2019-05-12T07:42:25.164Z,8.45
2019-05-12T07:43:21.131Z,8.42
2019-05-12T07:44:22.178Z,8.49
2019-05-12T07:45:22.333Z,8.46
2019-05-12T07:46:20.121Z,8.45
2019-05-12T07:47:27.407Z,8.44
2019-05-12T07:48:23.152Z,8.44
2019-05-12T07:49:22.002Z,8.42
2019-05-12T07:50:24.837Z,8.56
2019-05-12T07:51:21.059Z,8.53
2019-05-12T07:52:20.039Z,8.52
2019-05-12T07:53:20.024Z,8.63
2019-05-12T07:54:20.027Z,8.61
2019-05-12T07:55:20.011Z,8.60
2019-05-12T07:56:25.992Z,8.64
2019-05-12T07:57:20.989Z,8.71
2019-05-12T07:58:19.970Z,8.70
2019-05-12T07:59:19.962Z,8.73
2019-05-12T08:00:22.734Z,8.78
2019-05-12T08:01:20.945Z,8.76
2019-05-12T08:02:25.537Z,8.78
2019-05-12T08:03:21.666Z,8.82
2019-05-12T08:04:19.912Z,8.85
2019-05-12T08:05:21.430Z,8.87
2019-05-12T08:06:19.896Z,8.87
2019-05-12T08:07:25.160Z,8.95
2019-05-12T08:08:20.859Z,8.87
2019-05-12T08:09:24.205Z,8.94
2019-05-12T08:10:20.844Z,8.94
2019-05-12T08:11:19.861Z,8.89
2019-05-12T08:12:21.159Z,8.99
2019-05-12T08:13:19.805Z,8.92
2019-05-12T08:14:27.469Z,8.89
2019-05-12T08:15:20.785Z,8.99
2019-05-12T08:16:25.617Z,9.03
2019-05-12T08:17:20.767Z,8.92
2019-05-12T08:18:19.750Z,9.08
2019-05-12T08:19:23.861Z,9.11
2019-05-12T08:20:20.734Z,9.06
2019-05-12T08:21:19.719Z,9.02
2019-05-12T08:22:25.023Z,9.08
2019-05-12T08:23:20.699Z,9.11
2019-05-12T08:24:19.685Z,9.21
2019-05-12T08:25:24.775Z,9.14
2019-05-12T08:26:20.685Z,9.16
2019-05-12T08:27:19.670Z,9.18
2019-05-12T08:28:28.065Z,9.22
2019-05-12T08:29:22.084Z,9.16
2019-05-12T08:30:19.619Z,9.13
2019-05-12T08:31:28.828Z,9.16
2019-05-12T08:32:20.621Z,9.21
2019-05-12T08:33:19.601Z,9.23
2019-05-12T08:34:19.589Z,9.23
2019-05-12T08:35:26.911Z,9.31
2019-05-12T08:36:20.552Z,9.26
2019-05-12T08:37:19.545Z,9.32
2019-05-12T08:38:19.532Z,9.31
2019-05-12T08:39:22.833Z,9.39
2019-05-12T08:40:20.529Z,9.37
2019-05-12T08:41:19.500Z,9.32
2019-05-12T08:42:19.502Z,9.34
2019-05-12T08:43:19.480Z,9.37
2019-05-12T08:44:24.653Z,9.41
2019-05-12T08:45:27.348Z,9.40
2019-05-12T08:46:20.449Z,9.39
2019-05-12T08:47:19.451Z,9.40
2019-05-12T08:48:22.372Z,9.43
2019-05-12T08:49:20.467Z,9.40
2019-05-12T08:50:23.108Z,9.46
2019-05-12T08:51:20.400Z,9.46
2019-05-12T08:52:19.400Z,9.51
2019-05-12T08:53:20.877Z,9.59
2019-05-12T08:54:19.363Z,9.48
2019-05-12T08:55:25.089Z,9.61
2019-05-12T08:56:23.368Z,9.54
2019-05-12T08:57:20.339Z,9.48
2019-05-12T08:58:30.416Z,9.55
2019-05-12T08:59:24.901Z,9.56
2019-05-12T09:00:20.294Z,9.64
2019-05-12T09:01:20.229Z,9.62
2019-05-12T09:02:20.293Z,9.65
2019-05-12T09:03:20.475Z,9.56
2019-05-12T09:04:20.256Z,9.68
2019-05-12T09:05:19.239Z,9.69
2019-05-12T09:06:19.863Z,9.65
2019-05-12T09:07:19.244Z,9.65
2019-05-12T09:08:19.221Z,9.73
2019-05-12T09:09:19.235Z,9.66
2019-05-12T09:10:19.205Z,9.69
2019-05-12T09:11:19.173Z,9.72
2019-05-12T09:12:19.161Z,9.73
2019-05-12T09:13:19.158Z,9.76
2019-05-12T09:14:19.160Z,9.73
2019-05-12T09:15:19.129Z,9.73
2019-05-12T09:16:19.166Z,9.73
2019-05-12T09:17:19.122Z,9.83
2019-05-12T09:18:19.176Z,9.86
2019-05-12T09:19:24.174Z,9.77
2019-05-12T09:20:20.101Z,9.72
2019-05-12T09:21:23.668Z,9.77
2019-05-12T09:22:20.857Z,9.89
2019-05-12T09:23:19.043Z,9.82
2019-05-12T09:24:26.966Z,9.77
2019-05-12T09:25:20.147Z,9.84
2019-05-12T09:26:25.862Z,9.95
2019-05-12T09:27:19.993Z,9.92
2019-05-12T09:28:18.988Z,9.91
2019-05-12T09:29:18.976Z,9.99
2019-05-12T09:30:18.960Z,9.91
2019-05-12T09:31:19.519Z,9.99
2019-05-12T09:32:19.937Z,9.91
2019-05-12T09:33:21.439Z,10.02
2019-05-12T09:34:19.918Z,10.02
2019-05-12T09:35:18.909Z,10.09
2019-05-12T09:36:21.654Z,10.09
2019-05-12T09:37:18.987Z,10.05
2019-05-12T09:38:24.088Z,10.05
2019-05-12T09:39:19.860Z,10.12
2019-05-12T09:40:20.588Z,10.15
2019-05-12T09:41:18.845Z,10.16
2019-05-12T09:42:19.463Z,10.10
2019-05-12T09:43:19.833Z,10.05
2019-05-12T09:44:20.430Z,10.09
2019-05-12T09:45:19.793Z,10.05
2019-05-12T09:46:18.801Z,10.10
2019-05-12T09:47:23.092Z,10.05
2019-05-12T09:48:19.769Z,10.12
2019-05-12T09:49:22.741Z,10.12
2019-05-12T09:50:20.408Z,10.09
2019-05-12T09:51:18.730Z,10.13
2019-05-12T09:52:22.139Z,10.05
2019-05-12T09:53:19.858Z,10.10
2019-05-12T09:54:18.820Z,10.09
2019-05-12T09:55:21.882Z,10.09
2019-05-12T09:56:18.699Z,10.10
2019-05-12T09:57:18.695Z,10.05
2019-05-12T09:58:23.035Z,10.01
2019-05-12T09:59:23.093Z,10.19
2019-05-12T10:00:19.663Z,10.15
2019-05-12T10:01:18.648Z,10.10
2019-05-12T10:02:20.831Z,10.16
2019-05-12T10:03:18.660Z,10.10
2019-05-12T10:04:19.730Z,10.10
2019-05-12T10:05:18.599Z,10.16
2019-05-12T10:06:21.270Z,10.13
2019-05-12T10:07:18.550Z,10.15
2019-05-12T10:08:18.575Z,10.10
2019-05-12T10:09:19.930Z,10.10
2019-05-12T10:10:18.642Z,10.28
2019-05-12T10:11:20.738Z,10.22
2019-05-12T10:12:18.711Z,10.20
2019-05-12T10:13:20.455Z,10.20
2019-05-12T10:14:19.493Z,10.20
2019-05-12T10:15:24.022Z,10.20
2019-05-12T10:16:19.498Z,10.26
2019-05-12T10:17:20.297Z,10.23
2019-05-12T10:18:20.191Z,10.20
2019-05-12T10:19:18.479Z,10.25
2019-05-12T10:20:21.467Z,10.26
2019-05-12T10:21:18.548Z,10.33
2019-05-12T10:22:18.381Z,10.31
2019-05-12T10:23:21.550Z,10.31
2019-05-12T10:24:19.588Z,10.33
2019-05-12T10:25:22.953Z,10.25
2019-05-12T10:26:19.467Z,10.33
2019-05-12T10:27:21.165Z,10.20
2019-05-12T10:28:19.347Z,10.26
2019-05-12T10:29:20.870Z,10.31
2019-05-12T10:30:18.384Z,10.33
2019-05-12T10:31:18.886Z,10.33
2019-05-12T10:32:18.287Z,10.38
2019-05-12T10:33:18.365Z,10.33
2019-05-12T10:34:18.323Z,10.38
2019-05-12T10:35:21.426Z,10.34
2019-05-12T10:36:19.347Z,10.40
2019-05-12T10:37:19.319Z,10.30
2019-05-12T10:38:19.225Z,10.30
2019-05-12T10:39:18.210Z,10.38
2019-05-12T10:40:18.184Z,10.28
2019-05-12T10:41:18.174Z,10.30
2019-05-12T10:42:18.275Z,10.38
2019-05-12T10:43:18.157Z,10.35
2019-05-12T10:44:18.137Z,10.40
2019-05-12T10:45:20.409Z,10.34
2019-05-12T10:46:23.237Z,10.35
2019-05-12T10:47:19.111Z,10.37
2019-05-12T10:48:18.119Z,10.40
2019-05-12T10:49:18.102Z,10.40
2019-05-12T10:50:18.099Z,10.44
2019-05-12T10:51:18.058Z,10.41
2019-05-12T10:52:18.057Z,10.44
2019-05-12T10:53:18.093Z,10.51
2019-05-12T10:54:18.027Z,10.41
2019-05-12T10:55:18.025Z,10.48
2019-05-12T10:56:18.010Z,10.49
2019-05-12T10:57:17.993Z,10.46
2019-05-12T10:58:18.031Z,10.59
2019-05-12T10:59:30.136Z,10.56
2019-05-12T11:00:25.284Z,10.59
2019-05-12T11:01:18.946Z,10.61
2019-05-12T11:02:20.395Z,10.54
2019-05-12T11:03:18.937Z,10.56
2019-05-12T11:04:25.081Z,10.60
2019-05-12T11:05:25.536Z,10.57
2019-05-12T11:06:18.891Z,10.56
2019-05-12T11:07:17.881Z,10.57
2019-05-12T11:08:17.966Z,10.59
2019-05-12T11:09:21.352Z,10.56
2019-05-12T11:10:20.122Z,10.53
2019-05-12T11:11:17.849Z,10.48
2019-05-12T11:12:19.075Z,10.54
2019-05-12T11:13:18.838Z,10.57
2019-05-12T11:14:20.296Z,10.64
2019-05-12T11:15:18.806Z,10.57
2019-05-12T11:16:22.744Z,10.59
2019-05-12T11:17:18.769Z,10.71
2019-05-12T11:18:20.633Z,10.74
2019-05-12T11:19:18.828Z,10.68
2019-05-12T11:20:17.737Z,10.64
2019-05-12T11:21:17.725Z,10.69
2019-05-12T11:22:17.717Z,10.68
2019-05-12T11:23:17.703Z,10.74
2019-05-12T11:24:17.697Z,10.72
2019-05-12T11:25:17.762Z,10.79
2019-05-12T11:26:17.670Z,10.79
2019-05-12T11:27:17.662Z,10.79
2019-05-12T11:28:17.666Z,10.76
2019-05-12T11:29:17.641Z,10.78
2019-05-12T11:30:17.627Z,10.84
2019-05-12T11:31:17.617Z,10.87
2019-05-12T11:32:17.926Z,10.84
2019-05-12T11:33:17.611Z,10.89
2019-05-12T11:34:17.599Z,10.84
2019-05-12T11:35:17.573Z,10.90
2019-05-12T11:36:17.560Z,10.97
2019-05-12T11:37:17.653Z,11.00
2019-05-12T11:38:17.540Z,11.02
2019-05-12T11:39:17.537Z,11.00
2019-05-12T11:40:17.520Z,11.05
2019-05-12T11:41:20.290Z,11.12
2019-05-12T11:42:17.496Z,11.10
2019-05-12T11:43:17.498Z,11.18
2019-05-12T11:44:17.471Z,11.22
2019-05-12T11:45:17.473Z,11.23
2019-05-12T11:46:17.480Z,11.23
2019-05-12T11:47:24.357Z,11.25
2019-05-12T11:48:18.443Z,11.26
2019-05-12T11:49:21.863Z,11.19
2019-05-12T11:50:18.449Z,11.18
2019-05-12T11:51:20.831Z,11.19
2019-05-12T11:52:19.390Z,11.19
2019-05-12T11:53:21.552Z,11.25
2019-05-12T11:54:17.375Z,11.23
2019-05-12T11:55:21.329Z,11.25
2019-05-12T11:56:18.340Z,11.23
2019-05-12T11:57:20.155Z,11.17
2019-05-12T11:58:18.345Z,11.22
2019-05-12T11:59:17.315Z,11.25
2019-05-12T12:00:17.297Z,11.18
2019-05-12T12:01:17.290Z,11.19
2019-05-12T12:02:20.140Z,11.33
2019-05-12T12:03:18.517Z,11.25
2019-05-12T12:04:17.255Z,11.23
2019-05-12T12:05:17.245Z,11.32
2019-05-12T12:06:17.240Z,11.29
2019-05-12T12:07:17.219Z,11.29
2019-05-12T12:08:17.357Z,11.26
2019-05-12T12:09:18.953Z,11.29
2019-05-12T12:10:17.193Z,11.30
2019-05-12T12:11:22.033Z,11.25
2019-05-12T12:12:18.315Z,11.25
2019-05-12T12:13:19.375Z,11.23
2019-05-12T12:14:18.555Z,11.27
2019-05-12T12:15:20.284Z,11.15
2019-05-12T12:16:18.127Z,11.23
2019-05-12T12:17:17.117Z,11.17
2019-05-12T12:18:17.105Z,11.17
2019-05-12T12:19:17.091Z,11.32
2019-05-12T12:20:22.455Z,11.19
2019-05-12T12:21:18.068Z,11.27
2019-05-12T12:22:20.262Z,11.30
2019-05-12T12:23:18.039Z,11.30
2019-05-12T12:24:21.263Z,11.37
2019-05-12T12:25:18.025Z,11.27
2019-05-12T12:26:20.117Z,11.40
2019-05-12T12:27:17.113Z,11.33
2019-05-12T12:28:16.990Z,11.25
2019-05-12T12:29:16.994Z,11.19
2019-05-12T12:30:19.913Z,11.26
2019-05-12T12:31:16.963Z,11.25
2019-05-12T12:32:20.327Z,11.23
2019-05-12T12:33:16.933Z,11.25
2019-05-12T12:34:23.948Z,11.25
2019-05-12T12:35:17.913Z,11.26
2019-05-12T12:36:16.918Z,11.19
2019-05-12T12:37:18.832Z,11.23
2019-05-12T12:38:17.881Z,11.17
2019-05-12T12:39:16.877Z,11.19
2019-05-12T12:40:16.864Z,11.22
2019-05-12T12:41:16.841Z,11.17
2019-05-12T12:42:16.834Z,11.23
2019-05-12T12:43:16.824Z,11.18
2019-05-12T12:44:16.839Z,11.15
2019-05-12T12:45:16.795Z,11.19
2019-05-12T12:46:21.409Z,11.15
2019-05-12T12:47:16.778Z,11.15
2019-05-12T12:48:19.339Z,11.25
2019-05-12T12:49:17.788Z,11.18
2019-05-12T12:50:20.338Z,11.15
2019-05-12T12:51:17.778Z,11.23
2019-05-12T12:52:16.726Z,11.14
2019-05-12T12:53:16.733Z,11.17
2019-05-12T12:54:16.709Z,11.12
2019-05-12T12:55:16.690Z,11.12
2019-05-12T12:56:27.728Z,11.17
2019-05-12T12:57:19.253Z,11.12
2019-05-12T12:58:21.214Z,11.19
2019-05-12T12:59:17.651Z,11.19
2019-05-12T13:00:28.975Z,11.18
2019-05-12T13:01:26.879Z,11.25
2019-05-12T13:02:17.604Z,11.17
2019-05-12T13:03:19.637Z,11.19
2019-05-12T13:04:17.604Z,11.22
2019-05-12T13:05:16.603Z,11.22
2019-05-12T13:06:17.317Z,11.27
2019-05-12T13:07:16.550Z,11.30
2019-05-12T13:08:16.539Z,11.27
2019-05-12T13:09:23.909Z,11.37
2019-05-12T13:10:17.530Z,11.30